ホニアラ の空港の天気 - METARとTAF

ホニアラ国際空港 ( AGGH / HIR ) - ソロモン諸島 ガダルカナル島ホニアラ
飛行場実況気象(Metar)
観測時間04/26 18:00 SBT (04/26 07:00 UTC)
風向・風速東北東 2m/s
視程10km以上
天気現象
少しの雲 雲底高度 550m
気温29℃
湿度74%
気圧1007hPa
METARAGGH 260700Z 07004KT 9999 FEW018 29/24 Q1007
過去の天気等 Google飛行場航空写真 Wunderground天気予報

過去48時間のMETAR

飛行場予報(TAF)
発表時間: 4/26 15:50 SBT (4/26 04:50 UTC)
予報対象時間: 26日17時 SBT ~ 27日17時 SBT
風向・風速北東 4m/s
視程10km以上
少しの雲 雲底高度 490m
全天の4割程度の雲 雲底高度 3,050m
TAF AGGH 260450Z 2606/2706 05008KT 9999 FEW016 SCT100
PROB40 INTER 2606/2612 9999 -TSSH SCT017 FEW018CB T 31 28 26 25 Q 1006 1008 1009 1007